createdAt,value
2022-12-22T00:01:57.930Z,1.90
2022-12-22T00:04:43.772Z,2.00
2022-12-22T00:07:29.510Z,2.00
2022-12-22T00:10:15.402Z,2.00
2022-12-22T00:13:00.964Z,2.00
2022-12-22T00:15:51.929Z,2.00
2022-12-22T00:18:37.660Z,2.00
2022-12-22T00:21:23.608Z,2.00
2022-12-22T00:24:09.357Z,2.00
2022-12-22T00:26:55.255Z,2.00
2022-12-22T00:29:40.880Z,1.90
2022-12-22T00:32:32.732Z,2.00
2022-12-22T00:35:18.961Z,2.00
2022-12-22T00:38:04.738Z,2.00
2022-12-22T00:40:50.469Z,2.00
2022-12-22T00:43:35.946Z,2.00
2022-12-22T00:46:22.674Z,2.00
2022-12-22T00:49:09.018Z,2.10
2022-12-22T00:51:54.525Z,2.10
2022-12-22T00:54:41.225Z,2.10
2022-12-22T00:57:38.189Z,2.20
2022-12-22T01:00:25.869Z,2.20
2022-12-22T01:03:11.504Z,2.20
2022-12-22T01:05:57.222Z,2.30
2022-12-22T01:08:42.729Z,2.30
2022-12-22T01:11:28.182Z,2.20
2022-12-22T01:14:13.779Z,2.20
2022-12-22T01:16:59.318Z,2.30
2022-12-22T01:19:45.091Z,2.30
2022-12-22T01:22:34.421Z,2.30
2022-12-22T01:25:20.200Z,2.40
2022-12-22T01:28:05.948Z,2.40
2022-12-22T01:30:51.524Z,2.40
2022-12-22T01:33:37.204Z,2.40
2022-12-22T01:36:23.252Z,2.50
2022-12-22T01:39:09.034Z,2.50
2022-12-22T01:41:54.794Z,2.40
2022-12-22T01:44:40.681Z,2.40
2022-12-22T01:47:48.099Z,2.40
2022-12-22T01:50:35.622Z,2.50
2022-12-22T01:53:23.691Z,2.50
2022-12-22T01:56:09.239Z,2.50
2022-12-22T01:59:01.187Z,2.50
2022-12-22T02:01:49.183Z,2.60
2022-12-22T02:04:37.307Z,2.60
2022-12-22T02:07:33.992Z,2.60
2022-12-22T02:10:28.645Z,2.50
2022-12-22T02:13:23.110Z,2.60
2022-12-22T02:16:20.710Z,2.60
2022-12-22T02:19:15.576Z,2.60
2022-12-22T02:22:27.410Z,2.60
2022-12-22T02:25:25.249Z,2.60
2022-12-22T02:28:13.830Z,2.60
2022-12-22T02:31:01.224Z,2.60
2022-12-22T02:33:46.966Z,2.60
2022-12-22T02:36:41.968Z,2.60
2022-12-22T02:39:48.633Z,2.60
2022-12-22T02:42:37.281Z,2.70
2022-12-22T02:45:48.918Z,2.70
2022-12-22T02:49:06.777Z,2.60
2022-12-22T02:51:54.749Z,2.60
2022-12-22T02:54:42.355Z,2.60
2022-12-22T02:57:28.031Z,2.50
2022-12-22T03:00:13.621Z,2.50
2022-12-22T03:02:59.427Z,2.50
2022-12-22T03:05:44.925Z,2.50
2022-12-22T03:08:30.644Z,2.50
2022-12-22T03:11:16.384Z,2.50
2022-12-22T03:14:03.026Z,2.40
2022-12-22T03:16:48.952Z,2.30
2022-12-22T03:19:34.527Z,2.30
2022-12-22T03:22:20.218Z,2.20
2022-12-22T03:25:06.250Z,2.20
2022-12-22T03:27:33.388Z,2.20
2022-12-22T03:30:00.462Z,2.20
2022-12-22T03:32:27.479Z,2.20
2022-12-22T03:34:54.500Z,2.20
2022-12-22T03:37:21.481Z,2.20
2022-12-22T03:39:48.452Z,2.30
2022-12-22T03:42:34.313Z,2.30
2022-12-22T03:45:19.794Z,2.30
2022-12-22T03:47:47.554Z,2.30
2022-12-22T03:50:14.601Z,2.40
2022-12-22T03:52:41.574Z,2.40
2022-12-22T03:55:09.054Z,2.40
2022-12-22T03:57:36.385Z,2.40
2022-12-22T04:00:04.580Z,2.40
2022-12-22T04:02:39.033Z,2.40
2022-12-22T04:05:06.651Z,2.40
2022-12-22T04:07:33.841Z,2.40
2022-12-22T04:10:19.180Z,2.50
2022-12-22T04:12:55.307Z,2.40
2022-12-22T04:15:27.985Z,2.50
2022-12-22T04:17:55.800Z,2.50
2022-12-22T04:20:26.865Z,2.50
2022-12-22T04:22:57.530Z,2.50
2022-12-22T04:25:25.946Z,2.50
2022-12-22T04:27:53.046Z,2.60
2022-12-22T04:30:20.085Z,2.60
2022-12-22T04:32:47.229Z,2.60
2022-12-22T04:35:14.321Z,2.60
2022-12-22T04:37:41.278Z,2.60
2022-12-22T04:40:08.730Z,2.60
2022-12-22T04:42:35.833Z,2.60
2022-12-22T04:45:03.049Z,2.60
2022-12-22T04:47:30.046Z,2.60
2022-12-22T04:49:57.111Z,2.60
2022-12-22T04:52:24.139Z,2.60
2022-12-22T04:54:51.115Z,2.60
2022-12-22T04:57:18.431Z,2.70
2022-12-22T04:59:45.526Z,2.70
2022-12-22T05:02:12.786Z,2.70
2022-12-22T05:04:39.933Z,2.70
2022-12-22T05:07:07.895Z,2.70
2022-12-22T05:09:35.325Z,2.70
2022-12-22T05:12:22.361Z,2.70
2022-12-22T05:14:49.852Z,2.70
2022-12-22T05:17:16.957Z,2.70
2022-12-22T05:19:44.038Z,2.70
2022-12-22T05:22:11.385Z,2.70
2022-12-22T05:24:38.317Z,2.80
2022-12-22T05:27:05.538Z,2.80
2022-12-22T05:29:32.609Z,2.80
2022-12-22T05:31:59.827Z,2.80
2022-12-22T05:34:26.966Z,2.80
2022-12-22T05:36:54.020Z,2.80
2022-12-22T05:39:20.980Z,2.80
2022-12-22T05:41:48.048Z,2.80
2022-12-22T05:44:15.050Z,2.80
2022-12-22T05:46:42.088Z,2.80
2022-12-22T05:49:09.313Z,2.80
2022-12-22T05:51:36.424Z,2.80
2022-12-22T05:54:03.656Z,2.80
2022-12-22T05:56:30.682Z,2.80
2022-12-22T05:58:57.642Z,2.80
2022-12-22T06:01:24.894Z,2.70
2022-12-22T06:03:57.723Z,2.60
2022-12-22T06:06:26.860Z,2.50
2022-12-22T06:08:54.076Z,2.50
2022-12-22T06:11:21.195Z,2.40
2022-12-22T06:13:49.503Z,2.40
2022-12-22T06:16:16.671Z,2.40
2022-12-22T06:18:43.783Z,2.30
2022-12-22T06:21:10.966Z,2.30
2022-12-22T06:23:37.942Z,2.20
2022-12-22T06:26:05.014Z,2.20
2022-12-22T06:28:32.141Z,2.20
2022-12-22T06:30:59.225Z,2.20
2022-12-22T06:33:26.400Z,2.20
2022-12-22T06:35:58.711Z,2.30
2022-12-22T06:38:27.739Z,2.30
2022-12-22T06:40:54.738Z,2.40
2022-12-22T06:43:21.995Z,2.40
2022-12-22T06:45:48.971Z,2.40
2022-12-22T06:48:16.187Z,2.40
2022-12-22T06:50:43.251Z,2.50
2022-12-22T06:53:11.693Z,2.50
2022-12-22T06:55:39.223Z,2.50
2022-12-22T06:58:06.850Z,2.50
2022-12-22T07:00:34.132Z,2.60
2022-12-22T07:03:01.484Z,2.60
2022-12-22T07:05:30.511Z,2.60
2022-12-22T07:08:01.149Z,2.60
2022-12-22T07:10:51.745Z,2.60
2022-12-22T07:13:21.765Z,2.60
2022-12-22T07:15:57.255Z,2.50
2022-12-22T07:18:28.088Z,2.40
2022-12-22T07:20:55.397Z,2.40
2022-12-22T07:23:22.605Z,2.40
2022-12-22T07:25:49.605Z,2.40
2022-12-22T07:28:20.676Z,2.50
2022-12-22T07:30:49.896Z,2.50
2022-12-22T07:33:17.991Z,2.60
2022-12-22T07:35:45.443Z,2.50
2022-12-22T07:38:12.811Z,2.50
2022-12-22T07:40:42.461Z,2.60
2022-12-22T07:43:10.660Z,2.60
2022-12-22T07:45:38.444Z,2.70
2022-12-22T07:48:25.725Z,2.80
2022-12-22T07:50:53.079Z,2.80
2022-12-22T07:53:20.213Z,2.80
2022-12-22T07:55:47.428Z,2.80
2022-12-22T07:58:14.424Z,2.90
2022-12-22T08:00:41.374Z,2.90
2022-12-22T08:03:09.703Z,3.00
2022-12-22T08:05:38.081Z,3.00
2022-12-22T08:08:05.441Z,3.00
2022-12-22T08:10:32.963Z,3.00
2022-12-22T08:13:00.015Z,3.00
2022-12-22T08:15:27.086Z,3.10
2022-12-22T08:17:54.244Z,3.20
2022-12-22T08:20:21.229Z,3.20
2022-12-22T08:22:48.211Z,3.30
2022-12-22T08:25:15.262Z,3.50
2022-12-22T08:27:48.091Z,3.60
2022-12-22T08:30:15.540Z,3.70
2022-12-22T08:32:43.704Z,3.90
2022-12-22T08:35:11.025Z,4.20
2022-12-22T08:37:42.212Z,4.40
2022-12-22T08:40:14.605Z,4.50
2022-12-22T08:42:42.646Z,4.50
2022-12-22T08:45:11.350Z,4.40
2022-12-22T08:47:38.789Z,4.30
2022-12-22T08:50:06.610Z,4.40
2022-12-22T08:52:33.556Z,4.30
2022-12-22T08:55:00.603Z,4.50
2022-12-22T08:57:27.724Z,4.60
2022-12-22T08:59:54.781Z,4.70
2022-12-22T09:02:22.403Z,4.80
2022-12-22T09:04:49.557Z,4.60
2022-12-22T09:07:16.762Z,4.40
2022-12-22T09:09:44.680Z,4.40
2022-12-22T09:12:12.325Z,4.40
2022-12-22T09:14:39.309Z,4.30
2022-12-22T09:17:06.381Z,4.30
2022-12-22T09:19:33.526Z,4.20
2022-12-22T09:22:00.566Z,4.30
2022-12-22T09:24:27.595Z,4.40
2022-12-22T09:26:54.634Z,4.30
2022-12-22T09:29:21.839Z,4.30
2022-12-22T09:31:48.948Z,4.40
2022-12-22T09:34:18.509Z,4.50
2022-12-22T09:36:46.641Z,4.60
2022-12-22T09:39:16.967Z,4.80
2022-12-22T09:41:54.553Z,5.00
2022-12-22T09:44:24.334Z,5.10
2022-12-22T09:46:55.746Z,5.10
2022-12-22T09:49:23.478Z,5.20
2022-12-22T09:51:56.123Z,5.20
2022-12-22T09:54:24.507Z,5.40
2022-12-22T09:56:51.627Z,5.60
2022-12-22T09:59:20.556Z,5.70
2022-12-22T10:01:56.211Z,6.10
2022-12-22T10:04:36.764Z,6.40
2022-12-22T10:07:31.790Z,6.50
2022-12-22T10:10:17.373Z,6.40
2022-12-22T10:12:44.781Z,6.40
2022-12-22T10:15:18.332Z,6.30
2022-12-22T10:17:51.829Z,6.30
2022-12-22T10:20:22.052Z,6.10
2022-12-22T10:22:58.726Z,6.10
2022-12-22T10:25:45.065Z,6.00
2022-12-22T10:28:23.603Z,5.90
2022-12-22T10:31:08.779Z,5.90
2022-12-22T10:33:41.190Z,6.00
2022-12-22T10:36:12.816Z,6.20
2022-12-22T10:38:54.069Z,6.10
2022-12-22T10:41:23.649Z,6.30
2022-12-22T10:43:57.837Z,6.40
2022-12-22T10:46:47.752Z,6.60
2022-12-22T10:49:20.723Z,6.60
2022-12-22T10:51:53.936Z,6.90
2022-12-22T10:54:36.240Z,7.30
2022-12-22T10:57:25.801Z,7.50
2022-12-22T10:59:54.331Z,7.50
2022-12-22T11:02:21.542Z,7.60
2022-12-22T11:04:50.329Z,7.70
2022-12-22T11:07:17.685Z,7.90
2022-12-22T11:09:44.923Z,8.00
2022-12-22T11:12:48.829Z,8.10
2022-12-22T11:15:42.111Z,8.30
2022-12-22T11:18:18.546Z,8.10
2022-12-22T11:21:22.019Z,8.10
2022-12-22T11:24:11.714Z,8.10
2022-12-22T11:26:55.653Z,8.00
2022-12-22T11:29:50.063Z,8.00
2022-12-22T11:33:04.834Z,8.00
2022-12-22T11:36:01.193Z,7.90
2022-12-22T11:38:48.835Z,7.90
2022-12-22T11:41:49.323Z,7.80
2022-12-22T11:44:16.316Z,7.80
2022-12-22T11:47:02.347Z,7.80
2022-12-22T11:49:53.833Z,8.00
2022-12-22T11:52:57.759Z,8.30
2022-12-22T11:55:44.909Z,8.20
2022-12-22T11:58:23.272Z,8.10
2022-12-22T12:01:16.627Z,8.10
2022-12-22T12:04:07.600Z,8.20
2022-12-22T12:06:47.871Z,8.30
2022-12-22T12:09:32.599Z,8.20
2022-12-22T12:12:41.690Z,8.00
2022-12-22T12:15:32.106Z,7.70
2022-12-22T12:18:24.099Z,7.50
2022-12-22T12:21:23.480Z,7.50
2022-12-22T12:24:25.785Z,7.60
2022-12-22T12:27:13.979Z,7.70
2022-12-22T12:30:13.408Z,7.60
2022-12-22T12:33:02.979Z,7.60
2022-12-22T12:35:48.448Z,7.60
2022-12-22T12:41:38.865Z,7.60
2022-12-22T12:44:09.493Z,7.50
2022-12-22T12:46:51.682Z,7.40
2022-12-22T12:49:36.725Z,7.40
2022-12-22T12:52:07.634Z,7.40
2022-12-22T12:54:42.037Z,7.30
2022-12-22T12:57:45.515Z,7.30
2022-12-22T13:00:47.887Z,7.30
2022-12-22T13:04:02.433Z,7.20
2022-12-22T13:06:51.042Z,7.30
2022-12-22T13:09:49.737Z,7.40
2022-12-22T13:12:38.974Z,7.30
2022-12-22T13:15:39.349Z,7.30
2022-12-22T13:18:29.459Z,7.20
2022-12-22T13:21:50.952Z,7.10
2022-12-22T13:24:22.714Z,7.00
2022-12-22T13:26:44.600Z,6.90
2022-12-22T13:29:32.084Z,6.90
2022-12-22T13:32:14.227Z,6.90
2022-12-22T13:35:38.713Z,6.90
2022-12-22T13:38:06.912Z,6.90
2022-12-22T13:40:44.223Z,6.90
2022-12-22T13:43:14.950Z,6.80
2022-12-22T13:45:44.635Z,6.90
2022-12-22T13:48:25.443Z,7.00
2022-12-22T13:50:59.453Z,7.10
2022-12-22T13:56:26.331Z,7.20
2022-12-22T13:58:58.707Z,7.00
2022-12-22T14:01:26.196Z,6.80
2022-12-22T14:04:16.575Z,6.70
2022-12-22T14:06:43.945Z,6.60
2022-12-22T14:09:12.243Z,6.50
2022-12-22T14:11:42.791Z,6.50
2022-12-22T14:14:19.736Z,6.50
2022-12-22T14:16:49.700Z,6.70
2022-12-22T14:19:22.326Z,6.80
2022-12-22T14:21:58.953Z,6.80
2022-12-22T14:24:32.040Z,6.80
2022-12-22T14:27:02.643Z,6.90
2022-12-22T14:29:31.162Z,6.90
2022-12-22T14:32:03.001Z,6.90
2022-12-22T14:34:33.088Z,6.90
2022-12-22T14:37:01.879Z,6.90
2022-12-22T14:39:31.992Z,7.00
2022-12-22T14:42:11.445Z,7.10
2022-12-22T14:44:48.934Z,7.20
2022-12-22T14:47:19.754Z,7.20
2022-12-22T14:50:04.608Z,7.10
2022-12-22T14:52:45.635Z,7.00
2022-12-22T14:55:42.427Z,6.90
2022-12-22T14:58:21.773Z,6.90
2022-12-22T15:01:10.288Z,6.80
2022-12-22T15:03:38.839Z,6.70
2022-12-22T15:06:27.294Z,6.60
2022-12-22T15:09:09.042Z,6.60
2022-12-22T15:11:38.781Z,6.60
2022-12-22T15:14:06.081Z,6.50
2022-12-22T15:16:33.210Z,6.60
2022-12-22T15:19:00.239Z,6.60
2022-12-22T15:21:27.263Z,6.60
2022-12-22T15:23:54.385Z,6.60
2022-12-22T15:26:21.447Z,6.60
2022-12-22T15:28:48.782Z,6.60
2022-12-22T15:31:17.357Z,6.60
2022-12-22T15:33:45.401Z,6.70
2022-12-22T15:36:14.061Z,6.70
2022-12-22T15:38:42.141Z,6.70
2022-12-22T15:41:09.243Z,6.70
2022-12-22T15:43:57.378Z,6.70
2022-12-22T15:46:24.744Z,6.80
2022-12-22T15:48:52.553Z,6.80
2022-12-22T15:51:28.427Z,6.90
2022-12-22T15:53:56.988Z,6.90
2022-12-22T15:56:26.447Z,6.90
2022-12-22T15:58:53.829Z,6.90
2022-12-22T16:01:21.178Z,7.00
2022-12-22T16:03:48.437Z,7.00
2022-12-22T16:06:17.825Z,7.00
2022-12-22T16:08:50.729Z,7.10
2022-12-22T16:11:18.371Z,7.10
2022-12-22T16:13:46.379Z,7.20
2022-12-22T16:16:13.533Z,7.20
2022-12-22T16:18:40.623Z,7.30
2022-12-22T16:21:14.402Z,7.30
2022-12-22T16:23:43.677Z,7.30
2022-12-22T16:26:17.683Z,7.40
2022-12-22T16:28:44.835Z,7.40
2022-12-22T16:31:18.842Z,7.40
2022-12-22T16:33:45.966Z,7.50
2022-12-22T16:36:14.091Z,7.50
2022-12-22T16:38:41.484Z,7.50
2022-12-22T16:41:19.724Z,7.50
2022-12-22T16:46:33.515Z,7.40
2022-12-22T16:49:01.647Z,7.40
2022-12-22T16:51:36.897Z,7.50
2022-12-22T16:54:04.702Z,7.50
2022-12-22T16:56:32.237Z,7.50
2022-12-22T16:59:00.969Z,7.50
2022-12-22T17:01:38.898Z,7.50
2022-12-22T17:04:41.617Z,7.50
2022-12-22T17:07:10.312Z,7.50
2022-12-22T17:09:48.169Z,7.50
2022-12-22T17:12:22.216Z,7.50
2022-12-22T17:14:51.688Z,7.50
2022-12-22T17:17:30.360Z,7.60
2022-12-22T17:19:59.343Z,7.50
2022-12-22T17:22:29.181Z,7.50
2022-12-22T17:24:59.144Z,7.60
2022-12-22T17:27:31.723Z,7.60
2022-12-22T17:30:03.335Z,7.50
2022-12-22T17:32:30.345Z,7.50
2022-12-22T17:34:57.814Z,7.50
2022-12-22T17:37:24.916Z,7.40
2022-12-22T17:39:57.090Z,7.40
2022-12-22T17:42:24.916Z,7.30
2022-12-22T17:44:52.776Z,7.30
2022-12-22T17:47:26.869Z,7.30
2022-12-22T17:49:58.758Z,7.30
2022-12-22T17:52:28.170Z,7.30
2022-12-22T17:54:55.518Z,7.20
2022-12-22T17:57:29.838Z,7.30
2022-12-22T17:59:56.900Z,7.30
2022-12-22T18:02:25.765Z,7.30
2022-12-22T18:04:53.427Z,7.30
2022-12-22T18:07:23.853Z,7.30
2022-12-22T18:09:55.389Z,7.20
2022-12-22T18:12:27.195Z,7.20
2022-12-22T18:14:54.319Z,7.20
2022-12-22T18:17:28.631Z,7.20
2022-12-22T18:20:00.493Z,7.20
2022-12-22T18:22:29.630Z,7.20
2022-12-22T18:24:57.458Z,7.20
2022-12-22T18:27:24.623Z,7.20
2022-12-22T18:29:51.705Z,7.10
2022-12-22T18:32:26.331Z,7.10
2022-12-22T18:34:54.504Z,7.10
2022-12-22T18:37:21.565Z,7.20
2022-12-22T18:39:48.696Z,7.20
2022-12-22T18:42:23.563Z,7.20
2022-12-22T18:44:51.479Z,7.20
2022-12-22T18:47:18.886Z,7.20
2022-12-22T18:49:46.355Z,7.20
2022-12-22T18:52:18.978Z,7.20
2022-12-22T18:54:46.393Z,7.20
2022-12-22T18:57:19.932Z,7.20
2022-12-22T18:59:48.296Z,7.20
2022-12-22T19:02:28.846Z,7.20
2022-12-22T19:04:57.078Z,7.20
2022-12-22T19:07:25.845Z,7.20
2022-12-22T19:09:53.203Z,7.20
2022-12-22T19:12:23.379Z,7.20
2022-12-22T19:14:54.212Z,7.20
2022-12-22T19:17:27.946Z,7.20
2022-12-22T19:19:55.580Z,7.20
2022-12-22T19:22:22.615Z,7.20
2022-12-22T19:24:50.357Z,7.20
2022-12-22T19:27:23.966Z,7.20
2022-12-22T19:29:58.855Z,7.20
2022-12-22T19:32:38.823Z,7.20
2022-12-22T19:35:13.571Z,7.20
2022-12-22T19:37:40.636Z,7.20
2022-12-22T19:40:08.257Z,7.20
2022-12-22T19:42:35.862Z,7.20
2022-12-22T19:45:10.236Z,7.20
2022-12-22T19:47:38.587Z,7.30
2022-12-22T19:50:27.684Z,7.30
2022-12-22T19:52:56.194Z,7.30
2022-12-22T19:55:27.096Z,7.30
2022-12-22T19:57:54.884Z,7.30
2022-12-22T20:00:25.016Z,7.30
2022-12-22T20:02:55.629Z,7.30
2022-12-22T20:05:22.812Z,7.30
2022-12-22T20:07:55.380Z,7.30
2022-12-22T20:10:23.475Z,7.30
2022-12-22T20:12:55.026Z,7.30
2022-12-22T20:15:26.557Z,7.30
2022-12-22T20:17:55.285Z,7.20
2022-12-22T20:20:26.588Z,7.20
2022-12-22T20:22:56.777Z,7.20
2022-12-22T20:25:26.737Z,7.10
2022-12-22T20:27:55.559Z,7.00
2022-12-22T20:30:25.414Z,7.00
2022-12-22T20:32:53.241Z,7.00
2022-12-22T20:35:20.960Z,7.00
2022-12-22T20:37:48.879Z,6.90
2022-12-22T20:40:32.092Z,6.90
2022-12-22T20:42:59.176Z,6.90
2022-12-22T20:45:30.886Z,6.90
2022-12-22T20:47:59.889Z,6.90
2022-12-22T20:50:29.611Z,6.90
2022-12-22T20:52:57.349Z,7.00
2022-12-22T20:55:26.913Z,6.90
2022-12-22T20:57:54.811Z,6.90
2022-12-22T21:00:25.471Z,7.00
2022-12-22T21:02:53.081Z,7.00
2022-12-22T21:05:21.196Z,7.00
2022-12-22T21:07:49.338Z,7.00
2022-12-22T21:10:24.455Z,7.00
2022-12-22T21:12:51.547Z,7.00
2022-12-22T21:15:24.796Z,6.90
2022-12-22T21:17:58.104Z,6.90
2022-12-22T21:20:28.457Z,6.90
2022-12-22T21:22:55.472Z,6.90
2022-12-22T21:25:23.432Z,6.90
2022-12-22T21:27:52.323Z,6.80
2022-12-22T21:30:25.249Z,6.80
2022-12-22T21:32:53.952Z,6.80
2022-12-22T21:35:33.581Z,6.80
2022-12-22T21:38:00.819Z,6.70
2022-12-22T21:40:30.334Z,6.70
2022-12-22T21:42:58.162Z,6.70
2022-12-22T21:45:28.561Z,6.60
2022-12-22T21:47:56.048Z,6.70
2022-12-22T21:50:27.067Z,6.70
2022-12-22T21:52:54.404Z,6.70
2022-12-22T21:55:42.173Z,6.70
2022-12-22T21:58:13.211Z,6.70
2022-12-22T22:00:43.760Z,6.70
2022-12-22T22:03:11.417Z,6.70
2022-12-22T22:05:39.919Z,6.70
2022-12-22T22:08:09.234Z,6.70
2022-12-22T22:10:42.501Z,6.70
2022-12-22T22:13:14.806Z,6.70
2022-12-22T22:15:42.311Z,6.70
2022-12-22T22:18:15.567Z,6.60
2022-12-22T22:20:42.803Z,6.60
2022-12-22T22:23:12.736Z,6.50
2022-12-22T22:25:40.192Z,6.50
2022-12-22T22:28:07.371Z,6.40
2022-12-22T22:30:34.331Z,6.50
2022-12-22T22:33:01.389Z,6.50
2022-12-22T22:35:28.421Z,6.50
2022-12-22T22:37:56.015Z,6.50
2022-12-22T22:40:24.176Z,6.50
2022-12-22T22:42:51.133Z,6.50
2022-12-22T22:45:24.328Z,6.60
2022-12-22T22:47:52.753Z,6.60
2022-12-22T22:50:21.357Z,6.60
2022-12-22T22:52:49.232Z,6.60
2022-12-22T22:55:16.478Z,6.70
2022-12-22T22:57:43.664Z,6.70
2022-12-22T23:00:12.994Z,6.70
2022-12-22T23:02:40.404Z,6.70
2022-12-22T23:05:08.149Z,6.70
2022-12-22T23:07:36.144Z,6.70
2022-12-22T23:10:03.972Z,6.70
2022-12-22T23:12:31.547Z,6.70
2022-12-22T23:14:58.647Z,6.70
2022-12-22T23:17:25.756Z,6.70
2022-12-22T23:19:52.721Z,6.70
2022-12-22T23:22:19.821Z,6.70
2022-12-22T23:24:46.962Z,6.70
2022-12-22T23:27:14.408Z,6.70
2022-12-22T23:29:41.379Z,6.70
2022-12-22T23:32:08.354Z,6.70
2022-12-22T23:34:36.373Z,6.70
2022-12-22T23:37:04.202Z,6.80
2022-12-22T23:39:31.286Z,6.80
2022-12-22T23:41:58.335Z,6.80
2022-12-22T23:44:25.484Z,6.80
2022-12-22T23:46:52.564Z,6.80
2022-12-22T23:49:19.607Z,6.80
2022-12-22T23:51:47.214Z,6.80
2022-12-22T23:54:14.264Z,6.80
2022-12-22T23:56:41.257Z,6.70
2022-12-22T23:59:08.739Z,6.70
